createdAt,value
2018-01-23T00:00:08.017Z,0
2018-01-23T00:00:50.118Z,0
2018-01-23T00:01:30.789Z,0
2018-01-23T00:02:11.322Z,0
2018-01-23T00:02:51.911Z,0
2018-01-23T00:03:32.523Z,0
2018-01-23T00:04:13.171Z,0
2018-01-23T00:04:53.714Z,0
2018-01-23T00:05:35.887Z,0
2018-01-23T00:06:16.437Z,0
2018-01-23T00:06:57.062Z,0
2018-01-23T00:07:37.621Z,0
2018-01-23T00:08:19.487Z,0
2018-01-23T00:09:00.417Z,0
2018-01-23T00:09:40.879Z,0
2018-01-23T00:10:21.432Z,0
2018-01-23T00:11:02.014Z,0
2018-01-23T00:11:42.578Z,0
2018-01-23T00:12:23.254Z,0
2018-01-23T00:13:05.162Z,0
2018-01-23T00:13:45.646Z,0
2018-01-23T00:14:26.296Z,0
2018-01-23T00:15:06.855Z,0
2018-01-23T00:15:47.368Z,0
2018-01-23T00:16:27.948Z,0
2018-01-23T00:17:10.152Z,0
2018-01-23T00:17:50.498Z,0
2018-01-23T00:18:31.797Z,0
2018-01-23T00:19:12.347Z,0
2018-01-23T00:19:52.999Z,0
2018-01-23T00:20:35.537Z,0
2018-01-23T00:21:16.104Z,0
2018-01-23T00:21:56.672Z,0
2018-01-23T00:22:37.252Z,0
2018-01-23T00:23:17.828Z,0
2018-01-23T00:23:58.489Z,0
2018-01-23T00:24:39.620Z,0
2018-01-23T00:25:20.459Z,0
2018-01-23T00:26:01.077Z,0
2018-01-23T00:26:41.652Z,0
2018-01-23T00:27:22.305Z,0
2018-01-23T00:28:02.834Z,0
2018-01-23T00:28:43.477Z,0
2018-01-23T00:29:24.192Z,0
2018-01-23T00:30:05.678Z,0
2018-01-23T00:30:46.227Z,0
2018-01-23T00:31:26.842Z,0
2018-01-23T00:32:07.343Z,0
2018-01-23T00:32:47.921Z,0
2018-01-23T00:33:28.456Z,0
2018-01-23T00:34:13.102Z,0
2018-01-23T00:34:54.312Z,0
2018-01-23T00:35:34.888Z,0
2018-01-23T00:36:15.423Z,0
2018-01-23T00:36:55.999Z,0
2018-01-23T00:37:36.539Z,0
2018-01-23T00:38:17.149Z,0
2018-01-23T00:38:57.668Z,0
2018-01-23T00:39:38.259Z,0
2018-01-23T00:40:19.631Z,0
2018-01-23T00:41:00.383Z,0
2018-01-23T00:41:40.995Z,0
2018-01-23T00:42:21.523Z,0
2018-01-23T00:43:02.155Z,0
2018-01-23T00:43:42.891Z,0
2018-01-23T00:44:24.928Z,0
2018-01-23T00:45:05.460Z,0
2018-01-23T00:45:46.082Z,0
2018-01-23T00:46:27.234Z,0
2018-01-23T00:47:08.013Z,0
2018-01-23T00:47:49.605Z,0
2018-01-23T00:48:31.013Z,0
2018-01-23T00:49:11.614Z,0
2018-01-23T00:49:52.146Z,0
2018-01-23T00:50:33.626Z,0
2018-01-23T00:51:14.428Z,0
2018-01-23T00:51:55.434Z,0
2018-01-23T00:52:36.118Z,0
2018-01-23T00:53:16.755Z,0
2018-01-23T00:53:59.303Z,0
2018-01-23T00:54:39.931Z,0
2018-01-23T00:55:20.526Z,0
2018-01-23T00:56:01.330Z,0
2018-01-23T00:56:42.233Z,0
2018-01-23T00:57:22.820Z,0
2018-01-23T00:58:05.828Z,0
2018-01-23T00:58:46.645Z,0
2018-01-23T00:59:27.274Z,0
2018-01-23T01:00:08.514Z,0
2018-01-23T01:00:49.498Z,0
2018-01-23T01:01:30.465Z,0
2018-01-23T01:02:11.032Z,0
2018-01-23T01:02:51.614Z,0
2018-01-23T01:03:32.965Z,0
2018-01-23T01:04:13.561Z,0
2018-01-23T01:04:54.344Z,0
2018-01-23T01:05:35.762Z,0
2018-01-23T01:06:16.944Z,0
2018-01-23T01:06:57.471Z,0
2018-01-23T01:07:38.124Z,0
2018-01-23T01:08:18.728Z,0
2018-01-23T01:08:59.272Z,0
2018-01-23T01:09:39.949Z,0
2018-01-23T01:10:21.448Z,0
2018-01-23T01:11:02.863Z,0
2018-01-23T01:11:43.385Z,0
2018-01-23T01:12:24.253Z,0
2018-01-23T01:13:06.570Z,0
2018-01-23T01:13:47.220Z,0
2018-01-23T01:14:28.442Z,0
2018-01-23T01:15:09.516Z,0
2018-01-23T01:15:50.112Z,0
2018-01-23T01:16:31.767Z,0
2018-01-23T01:17:12.351Z,0
2018-01-23T01:17:53.271Z,0
2018-01-23T01:18:33.833Z,0
2018-01-23T01:19:14.455Z,0
2018-01-23T01:19:55.198Z,0
2018-01-23T01:20:37.099Z,0
2018-01-23T01:21:17.677Z,0
2018-01-23T01:21:58.311Z,0
2018-01-23T01:22:38.880Z,0
2018-01-23T01:23:19.426Z,0
2018-01-23T01:23:59.950Z,0
2018-01-23T01:24:41.589Z,0
2018-01-23T01:25:22.909Z,0
2018-01-23T01:26:03.180Z,0
2018-01-23T01:26:43.794Z,0
2018-01-23T01:27:24.363Z,0
2018-01-23T01:28:04.909Z,0
2018-01-23T01:28:45.566Z,0
2018-01-23T01:29:27.373Z,0
2018-01-23T01:30:08.044Z,0
2018-01-23T01:30:48.637Z,0
2018-01-23T01:31:29.175Z,0
2018-01-23T01:32:09.770Z,0
2018-01-23T01:32:50.320Z,0
2018-01-23T01:33:30.912Z,0
2018-01-23T01:34:11.458Z,0
2018-01-23T01:34:53.094Z,0
2018-01-23T01:35:35.271Z,0
2018-01-23T01:36:18.720Z,0
2018-01-23T01:36:59.557Z,0
2018-01-23T01:37:40.379Z,0
2018-01-23T01:38:21.154Z,0
2018-01-23T01:39:01.680Z,0
2018-01-23T01:39:44.963Z,0
2018-01-23T01:40:26.426Z,0
2018-01-23T01:41:06.824Z,0
2018-01-23T01:41:47.413Z,0
2018-01-23T01:42:27.987Z,0
2018-01-23T01:43:08.642Z,0
2018-01-23T01:43:54.689Z,0
2018-01-23T01:44:35.250Z,0
2018-01-23T01:45:15.793Z,0
2018-01-23T01:45:56.551Z,0
2018-01-23T01:46:37.154Z,0
2018-01-23T01:47:18.571Z,0
2018-01-23T01:47:59.491Z,0
2018-01-23T01:48:40.057Z,0
2018-01-23T01:49:20.653Z,0
2018-01-23T01:50:01.290Z,0
2018-01-23T01:50:41.855Z,0
2018-01-23T01:51:23.877Z,0
2018-01-23T01:52:04.385Z,0
2018-01-23T01:52:44.924Z,0
2018-01-23T01:53:25.453Z,0
2018-01-23T01:54:06.083Z,0
2018-01-23T01:54:46.965Z,0
2018-01-23T01:55:27.502Z,0
2018-01-23T01:56:08.345Z,0
2018-01-23T01:56:49.237Z,0
2018-01-23T01:57:29.826Z,0
2018-01-23T01:58:10.382Z,0
2018-01-23T01:58:51.008Z,0
2018-01-23T01:59:31.542Z,0
2018-01-23T02:00:12.083Z,0
2018-01-23T02:00:52.852Z,0
2018-01-23T02:01:33.451Z,0
2018-01-23T02:02:13.992Z,0
2018-01-23T02:02:54.569Z,0
2018-01-23T02:03:35.108Z,0
2018-01-23T02:04:15.636Z,0
2018-01-23T02:04:56.189Z,0
2018-01-23T02:05:36.790Z,0
2018-01-23T02:06:18.369Z,0
2018-01-23T02:06:58.885Z,0
2018-01-23T02:07:39.465Z,0
2018-01-23T02:08:20.024Z,0
2018-01-23T02:09:00.642Z,0
2018-01-23T02:09:41.130Z,0
2018-01-23T02:10:21.699Z,0
2018-01-23T02:11:02.251Z,0
2018-01-23T02:11:42.800Z,0
2018-01-23T02:12:23.415Z,0
2018-01-23T02:13:04.110Z,0
2018-01-23T02:13:44.678Z,0
2018-01-23T02:14:25.253Z,0
2018-01-23T02:15:06.456Z,0
2018-01-23T02:15:47.046Z,0
2018-01-23T02:16:27.630Z,0
2018-01-23T02:17:08.155Z,0
2018-01-23T02:17:48.694Z,0
2018-01-23T02:18:29.240Z,0
2018-01-23T02:19:09.767Z,0
2018-01-23T02:19:50.400Z,0
2018-01-23T02:20:30.960Z,0
2018-01-23T02:21:11.531Z,0
2018-01-23T02:21:52.092Z,0
2018-01-23T02:22:32.634Z,0
2018-01-23T02:23:13.210Z,0
2018-01-23T02:23:53.728Z,0
2018-01-23T02:24:34.428Z,0
2018-01-23T02:25:14.986Z,0
2018-01-23T02:25:55.773Z,0
2018-01-23T02:26:36.397Z,0
2018-01-23T02:27:16.986Z,0
2018-01-23T02:27:57.691Z,0
2018-01-23T02:28:39.336Z,0
2018-01-23T02:29:19.846Z,0
2018-01-23T02:30:00.388Z,0
2018-01-23T02:30:40.979Z,0
2018-01-23T02:31:21.479Z,0
2018-01-23T02:32:02.044Z,0
2018-01-23T02:32:42.614Z,0
2018-01-23T02:33:23.153Z,0
2018-01-23T02:34:03.674Z,0
2018-01-23T02:34:44.194Z,0
2018-01-23T02:35:25.712Z,0
2018-01-23T02:36:06.304Z,0
2018-01-23T02:36:46.859Z,0
2018-01-23T02:37:27.423Z,0
2018-01-23T02:38:07.994Z,0
2018-01-23T02:38:48.624Z,0
2018-01-23T02:39:29.110Z,0
2018-01-23T02:40:09.656Z,0
2018-01-23T02:40:50.230Z,0
2018-01-23T02:41:30.821Z,0
2018-01-23T02:42:11.350Z,0
2018-01-23T02:42:51.917Z,0
2018-01-23T02:43:32.461Z,0
2018-01-23T02:44:13.037Z,0
2018-01-23T02:44:53.619Z,0
2018-01-23T02:45:34.176Z,0
2018-01-23T02:46:14.700Z,0
2018-01-23T02:46:55.269Z,0
2018-01-23T02:47:35.796Z,0
2018-01-23T02:48:16.421Z,0
2018-01-23T02:48:57.016Z,0
2018-01-23T02:49:37.520Z,0
2018-01-23T02:50:18.057Z,0
2018-01-23T02:50:58.639Z,0
2018-01-23T02:51:39.172Z,0
2018-01-23T02:52:19.727Z,0
2018-01-23T02:53:00.275Z,0
2018-01-23T02:53:40.826Z,0
2018-01-23T02:54:21.411Z,0
2018-01-23T02:55:01.915Z,0
2018-01-23T02:55:42.500Z,0
2018-01-23T02:56:23.049Z,0
2018-01-23T02:57:03.589Z,0
2018-01-23T02:57:44.162Z,0
2018-01-23T02:58:24.651Z,0
2018-01-23T02:59:05.194Z,0
2018-01-23T02:59:45.798Z,0
2018-01-23T03:00:26.388Z,0
2018-01-23T03:01:06.960Z,0
2018-01-23T03:01:47.483Z,0
2018-01-23T03:02:28.046Z,0
2018-01-23T03:03:08.614Z,0
2018-01-23T03:03:49.151Z,0
2018-01-23T03:04:29.727Z,0
2018-01-23T03:05:10.260Z,0
2018-01-23T03:05:50.746Z,0
2018-01-23T03:06:31.366Z,0
2018-01-23T03:07:11.923Z,0
2018-01-23T03:07:52.533Z,0
2018-01-23T03:08:33.117Z,0
2018-01-23T03:09:13.685Z,0
2018-01-23T03:09:54.227Z,0
2018-01-23T03:10:34.812Z,0
2018-01-23T03:11:15.339Z,0
2018-01-23T03:11:55.900Z,0
2018-01-23T03:12:36.461Z,0
2018-01-23T03:13:17.000Z,0
2018-01-23T03:13:57.553Z,0
2018-01-23T03:14:38.069Z,0
2018-01-23T03:15:18.586Z,0
2018-01-23T03:15:59.125Z,0
2018-01-23T03:16:39.706Z,0
2018-01-23T03:17:20.263Z,0
2018-01-23T03:18:00.785Z,0
2018-01-23T03:18:41.437Z,0
2018-01-23T03:19:22.048Z,0
2018-01-23T03:20:02.607Z,0
2018-01-23T03:20:43.169Z,0
2018-01-23T03:21:23.825Z,0
2018-01-23T03:22:04.434Z,0
2018-01-23T03:22:44.946Z,0
2018-01-23T03:23:25.504Z,0
2018-01-23T03:24:06.125Z,0
2018-01-23T03:24:46.670Z,0
2018-01-23T03:25:27.240Z,0
2018-01-23T03:26:07.759Z,0
2018-01-23T03:26:48.327Z,0
2018-01-23T03:27:29.081Z,0
2018-01-23T03:28:09.647Z,0
2018-01-23T03:28:50.227Z,0
2018-01-23T03:29:30.817Z,0
2018-01-23T03:30:11.321Z,0
2018-01-23T03:30:51.980Z,0
2018-01-23T03:31:32.498Z,0
2018-01-23T03:32:13.085Z,0
2018-01-23T03:32:53.565Z,0
2018-01-23T03:33:34.113Z,0
2018-01-23T03:34:14.732Z,0
2018-01-23T03:34:55.636Z,0
2018-01-23T03:35:36.191Z,0
2018-01-23T03:36:16.828Z,0
2018-01-23T03:36:57.421Z,0
2018-01-23T03:37:37.968Z,0
2018-01-23T03:38:18.672Z,0
2018-01-23T03:38:59.428Z,0
2018-01-23T03:39:39.996Z,0
2018-01-23T03:40:20.709Z,0
2018-01-23T03:41:01.199Z,0
2018-01-23T03:41:42.073Z,0
2018-01-23T03:42:22.566Z,0
2018-01-23T03:43:03.254Z,0
2018-01-23T03:43:43.943Z,0
2018-01-23T03:44:24.472Z,0
2018-01-23T03:45:04.995Z,0
2018-01-23T03:45:45.593Z,0
2018-01-23T03:46:26.952Z,0
2018-01-23T03:47:07.617Z,0
2018-01-23T03:47:48.325Z,0
2018-01-23T03:48:28.936Z,0
2018-01-23T03:49:09.563Z,0
2018-01-23T03:49:50.074Z,0
2018-01-23T03:50:30.606Z,0
2018-01-23T03:51:11.154Z,0
2018-01-23T03:51:51.718Z,0
2018-01-23T03:52:32.264Z,0
2018-01-23T03:53:12.828Z,0
2018-01-23T03:53:53.378Z,0
2018-01-23T03:54:33.974Z,0
2018-01-23T03:55:14.530Z,0
2018-01-23T03:55:55.053Z,0
2018-01-23T03:56:35.607Z,0
2018-01-23T03:57:16.143Z,0
2018-01-23T03:57:56.709Z,0
2018-01-23T03:58:37.334Z,0
2018-01-23T03:59:17.824Z,0
2018-01-23T03:59:58.362Z,0
2018-01-23T04:00:38.898Z,0
2018-01-23T04:01:19.462Z,0
2018-01-23T04:02:00.018Z,0
2018-01-23T04:02:40.569Z,0
2018-01-23T04:03:21.101Z,0
2018-01-23T04:04:01.714Z,0
2018-01-23T04:04:42.264Z,0
2018-01-23T04:05:22.805Z,0
2018-01-23T04:06:03.379Z,0
2018-01-23T04:06:43.931Z,0
2018-01-23T04:07:24.488Z,0
2018-01-23T04:08:05.061Z,0
2018-01-23T04:08:45.625Z,0
2018-01-23T04:09:26.161Z,0
2018-01-23T04:10:06.712Z,0
2018-01-23T04:10:47.305Z,0
2018-01-23T04:11:27.818Z,0
2018-01-23T04:12:08.329Z,0
2018-01-23T04:12:48.906Z,0
2018-01-23T04:13:29.505Z,0
2018-01-23T04:14:10.019Z,0
2018-01-23T04:14:50.562Z,0
2018-01-23T04:15:31.094Z,0
2018-01-23T04:16:11.666Z,0
2018-01-23T04:16:52.203Z,0
2018-01-23T04:17:32.777Z,0
2018-01-23T04:18:13.343Z,0
2018-01-23T04:18:53.907Z,0
2018-01-23T04:19:34.531Z,0
2018-01-23T04:20:15.054Z,0
2018-01-23T04:20:55.580Z,0
2018-01-23T04:21:36.140Z,0
2018-01-23T04:22:16.659Z,0
2018-01-23T04:22:57.215Z,0
2018-01-23T04:23:37.791Z,0
2018-01-23T04:24:18.332Z,0
2018-01-23T04:24:58.891Z,0
2018-01-23T04:25:39.429Z,0
2018-01-23T04:26:19.977Z,0
2018-01-23T04:27:00.548Z,0
2018-01-23T04:27:41.052Z,0
2018-01-23T04:28:21.613Z,0
2018-01-23T04:29:02.155Z,0
2018-01-23T04:29:42.716Z,0
2018-01-23T04:30:23.254Z,0
2018-01-23T04:31:03.899Z,0
2018-01-23T04:31:44.721Z,0
2018-01-23T04:32:25.301Z,0
2018-01-23T04:33:05.830Z,0
2018-01-23T04:33:46.450Z,0
2018-01-23T04:34:26.994Z,0
2018-01-23T04:35:07.609Z,0
2018-01-23T04:35:48.184Z,0
2018-01-23T04:36:28.733Z,0
2018-01-23T04:37:09.386Z,0
2018-01-23T04:37:49.950Z,0
2018-01-23T04:38:30.449Z,0
2018-01-23T04:39:11.003Z,0
2018-01-23T04:39:51.570Z,0
2018-01-23T04:40:33.881Z,0
2018-01-23T04:41:16.216Z,0
2018-01-23T04:41:56.770Z,0
2018-01-23T04:42:37.357Z,0
2018-01-23T04:43:17.920Z,0
2018-01-23T04:43:58.466Z,0
2018-01-23T04:44:38.988Z,0
2018-01-23T04:45:19.575Z,0
2018-01-23T04:46:00.247Z,0
2018-01-23T04:46:40.735Z,0
2018-01-23T04:47:21.304Z,0
2018-01-23T04:48:01.853Z,0
2018-01-23T04:48:42.394Z,0
2018-01-23T04:49:22.892Z,0
2018-01-23T04:50:03.438Z,0
2018-01-23T04:50:44.019Z,0
2018-01-23T04:51:24.566Z,0
2018-01-23T04:52:05.177Z,0
2018-01-23T04:52:45.727Z,0
2018-01-23T04:53:26.313Z,0
2018-01-23T04:54:06.868Z,0
2018-01-23T04:54:47.432Z,0
2018-01-23T04:55:27.972Z,0
2018-01-23T04:56:08.909Z,0
2018-01-23T04:56:49.504Z,0
2018-01-23T04:57:30.081Z,0
2018-01-23T04:58:10.727Z,0
2018-01-23T04:58:51.276Z,0
2018-01-23T04:59:31.827Z,0
2018-01-23T05:00:12.437Z,0
2018-01-23T05:00:52.991Z,0
2018-01-23T05:01:33.570Z,0
2018-01-23T05:02:14.168Z,0
2018-01-23T05:02:54.770Z,0
2018-01-23T05:03:35.369Z,0
2018-01-23T05:04:15.896Z,0
2018-01-23T05:04:56.563Z,0
2018-01-23T05:05:37.089Z,0
2018-01-23T05:06:17.658Z,0
2018-01-23T05:06:58.198Z,0
2018-01-23T05:07:38.731Z,0
2018-01-23T05:08:19.326Z,0
2018-01-23T05:08:59.908Z,0
2018-01-23T05:09:40.436Z,0
2018-01-23T05:10:20.973Z,0
2018-01-23T05:11:01.571Z,0
2018-01-23T05:11:42.159Z,0
2018-01-23T05:12:22.699Z,0
2018-01-23T05:13:03.275Z,0
2018-01-23T05:13:43.819Z,0
2018-01-23T05:14:24.371Z,0
2018-01-23T05:15:04.917Z,0
2018-01-23T05:15:45.526Z,0
2018-01-23T05:16:26.040Z,0
2018-01-23T05:17:06.611Z,0
2018-01-23T05:17:47.161Z,0
2018-01-23T05:18:27.748Z,0
2018-01-23T05:19:08.295Z,0
2018-01-23T05:19:49.570Z,0
2018-01-23T05:20:30.149Z,0
2018-01-23T05:21:10.689Z,0
2018-01-23T05:21:51.214Z,0
2018-01-23T05:22:31.798Z,0
2018-01-23T05:23:12.308Z,0
2018-01-23T05:23:52.793Z,0
2018-01-23T05:24:33.379Z,0
2018-01-23T05:25:13.902Z,0
2018-01-23T05:25:54.528Z,0
2018-01-23T05:26:35.171Z,0
2018-01-23T05:27:15.676Z,0
2018-01-23T05:27:56.255Z,0
2018-01-23T05:28:36.832Z,0
2018-01-23T05:29:17.340Z,0
2018-01-23T05:29:57.936Z,0
2018-01-23T05:30:38.448Z,0
2018-01-23T05:31:19.046Z,0
2018-01-23T05:31:59.521Z,0
2018-01-23T05:32:40.082Z,0
2018-01-23T05:33:20.661Z,0
2018-01-23T05:34:01.281Z,0
2018-01-23T05:34:41.771Z,0
2018-01-23T05:35:22.378Z,0
2018-01-23T05:36:02.976Z,0
2018-01-23T05:36:43.488Z,0
2018-01-23T05:37:24.033Z,0
2018-01-23T05:38:04.594Z,0
2018-01-23T05:38:45.203Z,0
2018-01-23T05:39:25.743Z,0
2018-01-23T05:40:06.319Z,0
2018-01-23T05:40:46.808Z,0
2018-01-23T05:41:27.347Z,0
2018-01-23T05:42:07.956Z,0
2018-01-23T05:42:48.538Z,0
2018-01-23T05:43:29.074Z,0
2018-01-23T05:44:09.591Z,0
2018-01-23T05:44:50.173Z,0
2018-01-23T05:45:30.769Z,0
2018-01-23T05:46:11.310Z,0
2018-01-23T05:46:51.915Z,0
2018-01-23T05:47:32.474Z,0
2018-01-23T05:48:13.124Z,0
2018-01-23T05:48:53.670Z,0
2018-01-23T05:49:34.234Z,0
2018-01-23T05:50:14.846Z,0
2018-01-23T05:50:55.366Z,0
2018-01-23T05:51:35.950Z,0
2018-01-23T05:52:16.535Z,0
2018-01-23T05:52:57.080Z,0
2018-01-23T05:53:37.647Z,0
2018-01-23T05:54:18.185Z,0
2018-01-23T05:54:58.773Z,0
2018-01-23T05:55:39.322Z,0
2018-01-23T05:56:19.896Z,0
2018-01-23T05:57:00.448Z,0
2018-01-23T05:57:40.967Z,0
2018-01-23T05:58:21.502Z,0
2018-01-23T05:59:02.012Z,0
2018-01-23T05:59:42.574Z,0
2018-01-23T06:00:23.139Z,0
2018-01-23T06:01:03.710Z,0
2018-01-23T06:01:44.225Z,0
2018-01-23T06:02:24.794Z,0
2018-01-23T06:03:05.371Z,0
2018-01-23T06:03:45.949Z,0
2018-01-23T06:04:26.523Z,0
2018-01-23T06:05:07.024Z,0
2018-01-23T06:05:47.567Z,0
2018-01-23T06:06:28.084Z,0
2018-01-23T06:07:08.631Z,0
2018-01-23T06:07:49.166Z,0
2018-01-23T06:08:29.677Z,0
2018-01-23T06:09:10.221Z,0
2018-01-23T06:09:50.761Z,0
2018-01-23T06:10:31.384Z,0
2018-01-23T06:11:11.996Z,0
2018-01-23T06:11:54.419Z,0
2018-01-23T06:12:35.004Z,0
2018-01-23T06:13:15.576Z,0
2018-01-23T06:13:56.058Z,0
2018-01-23T06:14:36.667Z,0
2018-01-23T06:15:17.236Z,0
2018-01-23T06:15:57.791Z,0
2018-01-23T06:16:38.383Z,0
2018-01-23T06:17:19.008Z,0
2018-01-23T06:18:01.414Z,0
2018-01-23T06:18:42.042Z,0
2018-01-23T06:19:22.618Z,0
2018-01-23T06:20:03.235Z,0
2018-01-23T06:20:43.810Z,0
2018-01-23T06:21:24.481Z,0
2018-01-23T06:22:05.022Z,0
2018-01-23T06:22:45.530Z,0
2018-01-23T06:23:26.049Z,0
2018-01-23T06:24:06.633Z,0
2018-01-23T06:24:47.146Z,0
2018-01-23T06:25:27.732Z,0
2018-01-23T06:26:08.282Z,0
2018-01-23T06:26:48.840Z,0
2018-01-23T06:27:29.418Z,0
2018-01-23T06:28:09.968Z,0
2018-01-23T06:28:50.557Z,0
2018-01-23T06:29:31.134Z,0
2018-01-23T06:30:11.658Z,0
2018-01-23T06:30:52.233Z,0
2018-01-23T06:31:32.882Z,0
2018-01-23T06:32:13.503Z,0
2018-01-23T06:32:54.022Z,0
2018-01-23T06:33:34.610Z,0
2018-01-23T06:34:15.239Z,0
2018-01-23T06:34:55.852Z,0
2018-01-23T06:35:36.400Z,0
2018-01-23T06:36:16.920Z,0
2018-01-23T06:36:57.445Z,0
2018-01-23T06:37:39.691Z,0
2018-01-23T06:38:20.251Z,0
2018-01-23T06:39:00.843Z,0
2018-01-23T06:39:41.357Z,0
2018-01-23T06:40:21.909Z,0
2018-01-23T06:41:02.478Z,0
2018-01-23T06:41:43.010Z,0
2018-01-23T06:42:23.610Z,0
2018-01-23T06:43:04.163Z,0
2018-01-23T06:43:44.672Z,0
2018-01-23T06:44:25.224Z,0
2018-01-23T06:45:05.785Z,0
2018-01-23T06:45:46.303Z,0
2018-01-23T06:46:26.883Z,0
2018-01-23T06:47:07.454Z,0
2018-01-23T06:47:47.956Z,0
2018-01-23T06:48:28.474Z,0
2018-01-23T06:49:09.059Z,0
2018-01-23T06:49:49.660Z,0
2018-01-23T06:50:30.249Z,0
2018-01-23T06:51:10.812Z,0
2018-01-23T06:51:51.351Z,0
2018-01-23T06:52:32.014Z,0
2018-01-23T06:53:12.567Z,0
2018-01-23T06:53:53.094Z,0
2018-01-23T06:54:33.695Z,0
2018-01-23T06:55:14.273Z,0
2018-01-23T06:55:54.880Z,0
2018-01-23T06:56:35.443Z,0
2018-01-23T06:57:16.069Z,0
2018-01-23T06:57:56.658Z,0
2018-01-23T06:58:37.245Z,0
2018-01-23T06:59:17.895Z,0
2018-01-23T06:59:58.418Z,0
2018-01-23T07:00:38.976Z,0
2018-01-23T07:01:19.520Z,0
2018-01-23T07:02:00.078Z,0
2018-01-23T07:02:40.669Z,0
2018-01-23T07:03:21.189Z,0
2018-01-23T07:04:01.743Z,0
2018-01-23T07:04:42.312Z,0
2018-01-23T07:05:22.784Z,0
2018-01-23T07:06:03.346Z,0
2018-01-23T07:06:43.863Z,0
2018-01-23T07:07:24.414Z,0
2018-01-23T07:08:04.948Z,0
2018-01-23T07:08:45.517Z,0
2018-01-23T07:09:26.104Z,0
2018-01-23T07:10:06.544Z,0
2018-01-23T07:10:47.179Z,0
2018-01-23T07:11:27.780Z,0
2018-01-23T07:12:08.332Z,0
2018-01-23T07:12:48.967Z,0
2018-01-23T07:13:29.525Z,0
2018-01-23T07:14:10.075Z,0
2018-01-23T07:14:50.631Z,0
2018-01-23T07:15:31.160Z,0
2018-01-23T07:16:11.748Z,0
2018-01-23T07:16:52.319Z,0
2018-01-23T07:17:32.846Z,0
2018-01-23T07:18:13.351Z,0
2018-01-23T07:18:53.888Z,0
2018-01-23T07:19:34.534Z,0
2018-01-23T07:20:15.075Z,0
2018-01-23T07:20:55.577Z,0
2018-01-23T07:21:36.084Z,0
2018-01-23T07:22:16.637Z,0
2018-01-23T07:22:57.202Z,5
2018-01-23T07:23:37.774Z,5
2018-01-23T07:24:18.375Z,5
2018-01-23T07:24:58.934Z,5
2018-01-23T07:25:39.492Z,5
2018-01-23T07:26:20.062Z,5
2018-01-23T07:27:00.627Z,5
2018-01-23T07:27:41.229Z,5
2018-01-23T07:28:21.836Z,5
2018-01-23T07:29:02.383Z,5
2018-01-23T07:29:42.985Z,5
2018-01-23T07:30:23.523Z,5
2018-01-23T07:31:04.188Z,5
2018-01-23T07:31:44.726Z,5
2018-01-23T07:32:25.284Z,5
2018-01-23T07:33:05.951Z,5
2018-01-23T07:33:46.483Z,5
2018-01-23T07:34:27.041Z,5
2018-01-23T07:35:07.562Z,5
2018-01-23T07:35:48.136Z,5
2018-01-23T07:36:28.705Z,5
2018-01-23T07:37:09.209Z,10
2018-01-23T07:37:49.842Z,10
2018-01-23T07:38:30.775Z,10
2018-01-23T07:39:11.345Z,10
2018-01-23T07:39:51.888Z,10
2018-01-23T07:40:32.416Z,10
2018-01-23T07:41:12.971Z,10
2018-01-23T07:41:53.530Z,10
2018-01-23T07:42:34.120Z,10
2018-01-23T07:43:14.692Z,10
2018-01-23T07:43:55.825Z,10
2018-01-23T07:44:36.409Z,10
2018-01-23T07:45:16.955Z,10
2018-01-23T07:45:57.508Z,10
2018-01-23T07:46:38.118Z,10
2018-01-23T07:47:18.619Z,10
2018-01-23T07:47:59.244Z,10
2018-01-23T07:48:43.209Z,10
2018-01-23T07:49:26.465Z,10
2018-01-23T07:50:07.318Z,15
2018-01-23T07:50:47.785Z,15
2018-01-23T07:51:28.370Z,15
2018-01-23T07:52:08.952Z,15
2018-01-23T07:52:49.542Z,15
2018-01-23T07:53:30.344Z,15
2018-01-23T07:54:10.995Z,15
2018-01-23T07:54:51.563Z,15
2018-01-23T07:55:32.117Z,15
2018-01-23T07:56:12.686Z,15
2018-01-23T07:56:53.313Z,15
2018-01-23T07:57:34.030Z,15
2018-01-23T07:58:14.623Z,15
2018-01-23T07:58:55.202Z,15
2018-01-23T07:59:35.735Z,20
2018-01-23T08:00:16.327Z,20
2018-01-23T08:00:56.882Z,20
2018-01-23T08:01:37.401Z,20
2018-01-23T08:02:17.927Z,20
2018-01-23T08:02:58.541Z,25
2018-01-23T08:03:39.090Z,25
2018-01-23T08:04:19.601Z,25
2018-01-23T08:05:00.207Z,25
2018-01-23T08:05:40.738Z,25
2018-01-23T08:06:21.339Z,25
2018-01-23T08:07:02.022Z,25
2018-01-23T08:07:42.761Z,25
2018-01-23T08:08:23.470Z,30
2018-01-23T08:09:05.036Z,30
2018-01-23T08:09:45.679Z,30
2018-01-23T08:10:26.343Z,30
2018-01-23T08:11:06.947Z,30
2018-01-23T08:11:47.473Z,25
2018-01-23T08:12:28.024Z,30
2018-01-23T08:13:08.611Z,30
2018-01-23T08:13:49.132Z,30
2018-01-23T08:14:29.699Z,30
2018-01-23T08:15:10.216Z,25
2018-01-23T08:15:50.800Z,25
2018-01-23T08:16:31.331Z,30
2018-01-23T08:17:11.887Z,30
2018-01-23T08:17:52.488Z,30
2018-01-23T08:18:32.977Z,30
2018-01-23T08:19:13.554Z,30
2018-01-23T08:19:54.452Z,30
2018-01-23T08:20:34.963Z,30
2018-01-23T08:21:15.475Z,30
2018-01-23T08:21:56.036Z,30
2018-01-23T08:22:36.619Z,25
2018-01-23T08:23:17.125Z,30
2018-01-23T08:23:57.697Z,30
2018-01-23T08:24:38.216Z,30
2018-01-23T08:25:18.748Z,30
2018-01-23T08:25:59.319Z,30
2018-01-23T08:26:40.013Z,30
2018-01-23T08:27:20.547Z,30
2018-01-23T08:28:01.123Z,30
2018-01-23T08:28:41.607Z,30
2018-01-23T08:29:22.167Z,30
2018-01-23T08:30:02.764Z,30
2018-01-23T08:30:43.321Z,30
2018-01-23T08:31:23.889Z,30
2018-01-23T08:32:04.434Z,35
2018-01-23T08:32:45.060Z,35
2018-01-23T08:33:25.604Z,35
2018-01-23T08:34:06.128Z,35
2018-01-23T08:34:46.638Z,35
2018-01-23T08:35:27.355Z,35
2018-01-23T08:36:07.890Z,35
2018-01-23T08:36:48.421Z,35
2018-01-23T08:37:28.975Z,35
2018-01-23T08:38:09.598Z,35
2018-01-23T08:38:50.079Z,35
2018-01-23T08:39:30.605Z,35
2018-01-23T08:40:11.207Z,35
2018-01-23T08:40:51.756Z,35
2018-01-23T08:41:32.274Z,35
2018-01-23T08:42:12.814Z,35
2018-01-23T08:42:53.420Z,35
2018-01-23T08:43:33.969Z,35
2018-01-23T08:44:14.498Z,35
2018-01-23T08:44:55.064Z,35
2018-01-23T08:45:35.636Z,35
2018-01-23T08:46:16.197Z,35
2018-01-23T08:46:56.739Z,35
2018-01-23T08:47:37.302Z,35
2018-01-23T08:48:17.812Z,40
2018-01-23T08:48:58.426Z,40
2018-01-23T08:49:38.953Z,40
2018-01-23T08:50:19.530Z,40
2018-01-23T08:51:00.110Z,40
2018-01-23T08:51:40.671Z,40
2018-01-23T08:52:21.286Z,45
2018-01-23T08:53:01.800Z,40
2018-01-23T08:53:42.468Z,40
2018-01-23T08:54:23.034Z,40
2018-01-23T08:55:03.586Z,40
2018-01-23T08:55:44.183Z,40
2018-01-23T08:56:24.768Z,40
2018-01-23T08:57:05.359Z,40
2018-01-23T08:57:45.882Z,45
2018-01-23T08:58:26.438Z,45
2018-01-23T08:59:07.001Z,45
2018-01-23T08:59:47.530Z,45
2018-01-23T09:00:28.112Z,45
2018-01-23T09:01:08.673Z,45
2018-01-23T09:01:49.321Z,45
2018-01-23T09:02:29.862Z,50
2018-01-23T09:03:10.353Z,50
2018-01-23T09:03:50.901Z,50
2018-01-23T09:04:31.509Z,50
2018-01-23T09:05:12.084Z,50
2018-01-23T09:05:54.468Z,50
2018-01-23T09:06:34.961Z,50
2018-01-23T09:07:15.582Z,50
2018-01-23T09:07:56.106Z,55
2018-01-23T09:08:36.648Z,55
2018-01-23T09:09:17.228Z,50
2018-01-23T09:09:57.824Z,50
2018-01-23T09:10:38.371Z,50
2018-01-23T09:11:18.932Z,50
2018-01-23T09:11:59.618Z,50
2018-01-23T09:12:40.221Z,50
2018-01-23T09:13:20.790Z,50
2018-01-23T09:14:01.358Z,50
2018-01-23T09:14:41.850Z,50
2018-01-23T09:15:22.475Z,50
2018-01-23T09:16:03.012Z,50
2018-01-23T09:16:43.523Z,50
2018-01-23T09:17:24.068Z,50
2018-01-23T09:18:04.656Z,50
2018-01-23T09:18:45.171Z,50
2018-01-23T09:19:25.738Z,50
2018-01-23T09:20:06.295Z,50
2018-01-23T09:20:46.793Z,50
2018-01-23T09:21:27.350Z,50
2018-01-23T09:22:07.845Z,50
2018-01-23T09:22:48.469Z,50
2018-01-23T09:23:29.011Z,45
2018-01-23T09:24:09.560Z,45
2018-01-23T09:24:50.100Z,45
2018-01-23T09:25:30.655Z,45
2018-01-23T09:26:11.220Z,45
2018-01-23T09:26:51.803Z,45
2018-01-23T09:27:32.369Z,45
2018-01-23T09:28:12.945Z,50
2018-01-23T09:28:53.445Z,50
2018-01-23T09:29:34.012Z,50
2018-01-23T09:30:14.512Z,50
2018-01-23T09:30:55.093Z,50
2018-01-23T09:31:35.652Z,50
2018-01-23T09:32:16.184Z,50
2018-01-23T09:32:56.747Z,50
2018-01-23T09:33:37.280Z,50
2018-01-23T09:34:17.806Z,55
2018-01-23T09:34:58.390Z,55
2018-01-23T09:35:38.939Z,55
2018-01-23T09:36:19.462Z,55
2018-01-23T09:37:00.017Z,55
2018-01-23T09:37:40.580Z,55
2018-01-23T09:38:21.081Z,55
2018-01-23T09:39:01.639Z,55
2018-01-23T09:39:42.165Z,55
2018-01-23T09:40:22.719Z,55
2018-01-23T09:41:03.264Z,55
2018-01-23T09:41:43.837Z,55
2018-01-23T09:42:24.374Z,60
2018-01-23T09:43:04.899Z,60
2018-01-23T09:43:45.536Z,60
2018-01-23T09:44:26.057Z,60
2018-01-23T09:45:06.657Z,60
2018-01-23T09:45:47.245Z,60
2018-01-23T09:46:27.807Z,65
2018-01-23T09:47:08.371Z,65
2018-01-23T09:47:48.933Z,65
2018-01-23T09:48:29.549Z,65
2018-01-23T09:49:10.105Z,60
2018-01-23T09:49:50.692Z,60
2018-01-23T09:50:31.284Z,60
2018-01-23T09:51:11.789Z,60
2018-01-23T09:51:52.413Z,60
2018-01-23T09:52:32.991Z,60
2018-01-23T09:53:13.535Z,60
2018-01-23T09:53:54.121Z,60
2018-01-23T09:54:34.682Z,60
2018-01-23T09:55:15.290Z,60
2018-01-23T09:55:55.878Z,60